Time;durP1;ratioP1;P1;durP2;ratioP2;P2;SDS_P1;SDS_P2;PMS_P1;PMS_P2;Temp;Humidity;BMP_temperature;BMP_pressure;BME280_temperature;BME280_humidity;BME280_pressure;Samples;Min_cycle;Max_cycle;Signal;HPM_P1;HPM_P2
2022/02/02 00:00:13;;;;;;;;;11.00;8.00;;;;;12.32;72.70;102036.94;5096886;27;45494;-75
2022/02/02 00:02:50;;;;;;;;;8.00;8.00;;;;;12.37;72.82;102044.09;5097266;27;46932;-75
2022/02/02 00:05:31;;;;;;;;;9.00;9.00;;;;;12.35;72.86;102027.25;5096534;27;45375;-75
2022/02/02 00:08:11;;;;;;;;;14.00;8.00;;;;;12.38;72.81;102041.47;5097050;27;45483;-76
2022/02/02 00:10:59;;;;;;;;;11.67;9.00;;;;;12.33;72.85;102041.34;5080315;27;45418;-75
2022/02/02 00:13:38;;;;;;;;;11.67;8.00;;;;;12.40;72.83;102050.34;5096283;27;45540;-75
2022/02/02 00:18:53;;;;;;;;;11.00;8.67;;;;;12.45;72.90;102071.63;5096429;27;45311;-75
2022/02/02 00:24:32;;;;;;;;;13.00;7.67;;;;;12.46;72.71;102054.88;5056265;27;47618;-75
2022/02/02 00:27:02;;;;;;;;;9.00;9.00;;;;;12.48;72.56;102051.41;5096418;27;45354;-75
2022/02/02 00:29:34;;;;;;;;;11.00;5.67;;;;;12.46;72.60;102049.56;5096798;27;45531;-75
2022/02/02 00:32:12;;;;;;;;;12.67;8.67;;;;;12.38;72.28;102032.63;5096911;27;45435;-76
2022/02/02 00:34:38;;;;;;;;;11.00;9.00;;;;;12.44;72.59;102046.91;5090267;27;46662;-75
2022/02/02 00:37:03;;;;;;;;;9.00;6.00;;;;;12.39;72.54;102040.59;5096117;27;45334;-75
2022/02/02 00:39:29;;;;;;;;;9.00;9.00;;;;;12.36;72.66;102044.94;5096817;27;45320;-75
2022/02/02 00:41:56;;;;;;;;;9.67;6.67;;;;;12.32;72.66;102049.28;5096428;27;45544;-75
2022/02/02 00:44:22;;;;;;;;;9.00;5.00;;;;;12.28;72.81;102050.06;5091707;27;45699;-75
2022/02/02 00:46:47;;;;;;;;;15.67;8.67;;;;;12.35;72.66;102061.69;5096584;27;45383;-75
2022/02/02 00:49:14;;;;;;;;;10.00;6.00;;;;;12.36;72.67;102064.38;5093329;27;47638;-75
2022/02/02 00:54:08;;;;;;;;;6.00;6.00;;;;;12.37;72.62;102066.16;5096342;27;46435;-76
2022/02/02 00:56:33;;;;;;;;;15.67;9.00;;;;;12.29;72.80;102044.78;5096112;27;45202;-75
2022/02/02 00:58:58;;;;;;;;;6.67;6.33;;;;;12.33;72.98;102064.31;5101011;27;45642;-75
2022/02/02 01:01:24;;;;;;;;;10.67;9.00;;;;;12.36;72.60;102076.72;5096501;27;45587;-75
2022/02/02 01:03:49;;;;;;;;;10.33;7.33;;;;;12.38;72.63;102069.72;5096073;27;47535;-75
2022/02/02 01:06:18;;;;;;;;;7.00;4.00;;;;;12.40;72.65;102076.81;5099264;27;56488;-75
2022/02/02 01:09:09;;;;;;;;;6.00;6.00;;;;;12.33;72.58;102070.50;5104970;27;45455;-75
2022/02/02 01:21:58;;;;;;;;;12.67;7.33;;;;;12.40;72.46;102055.63;5099919;27;45290;-75
2022/02/02 01:29:45;;;;;;;;;10.33;9.00;;;;;12.48;72.50;102063.78;5095514;27;45292;-75
2022/02/02 01:32:11;;;;;;;;;12.33;11.33;;;;;12.48;72.44;102072.63;5099516;27;45600;-75
2022/02/02 01:34:36;;;;;;;;;7.33;6.00;;;;;12.45;72.30;102064.59;5089417;27;62023;-75
2022/02/02 01:37:02;;;;;;;;;10.00;7.67;;;;;12.36;72.42;102061.75;5095157;27;55081;-75
2022/02/02 01:39:29;;;;;;;;;12.67;6.67;;;;;12.35;72.40;102062.56;5099556;27;45428;-75
2022/02/02 01:41:55;;;;;;;;;11.00;6.67;;;;;12.39;72.36;102058.25;5099324;27;45455;-75
2022/02/02 01:44:36;;;;;;;;;7.00;6.00;;;;;12.36;72.43;102077.63;5098463;27;45993;-75
2022/02/02 01:47:03;;;;;;;;;10.00;8.00;;;;;12.36;72.43;102076.72;5098530;27;45550;-75
2022/02/02 01:56:58;;;;;;;;;11.00;8.33;;;;;12.32;72.52;102068.72;5080147;27;45371;-75
2022/02/02 01:59:39;;;;;;;;;9.00;6.33;;;;;12.33;72.60;102075.78;5099130;27;46064;-75
2022/02/02 02:02:08;;;;;;;;;7.67;7.67;;;;;12.31;72.59;102081.94;5073896;27;45610;-75
2022/02/02 02:04:33;;;;;;;;;12.00;6.67;;;;;12.32;72.76;102081.94;5096912;27;45784;-75
2022/02/02 02:06:59;;;;;;;;;10.67;9.67;;;;;12.35;72.45;102080.22;5098861;27;45409;-76
2022/02/02 02:09:26;;;;;;;;;6.00;6.00;;;;;12.36;72.46;102082.00;5098639;27;50068;-75
2022/02/02 02:12:02;;;;;;;;;12.33;10.00;;;;;12.36;72.46;102085.59;5089710;27;45345;-75
2022/02/02 02:17:12;;;;;;;;;11.33;9.00;;;;;12.29;72.57;102063.31;5091468;27;45501;-75
2022/02/02 02:19:41;;;;;;;;;10.67;10.67;;;;;12.39;72.71;102072.38;5097808;27;45489;-75
2022/02/02 02:22:09;;;;;;;;;11.33;8.33;;;;;12.40;72.59;102081.22;5098769;27;45376;-75
2022/02/02 02:24:37;;;;;;;;;18.67;9.67;;;;;12.38;72.50;102075.91;5098257;27;45785;-75
2022/02/02 02:27:03;;;;;;;;;13.00;10.00;;;;;12.33;72.53;102066.94;5098242;27;45392;-75
2022/02/02 02:55:49;;;;;;;;;11.67;10.67;;;;;12.35;72.85;102051.97;5098194;27;45461;-75
2022/02/02 02:56:25;;;;;;;;;12.00;10.00;;;;;12.33;73.11;102073.16;5091090;27;45901;-75
2022/02/02 02:59:09;;;;;;;;;14.67;11.00;;;;;12.29;72.99;102065.97;5096435;27;45462;-76
2022/02/02 03:58:23;;;;;;;;;15.33;11.67;;;;;12.36;72.83;102074.06;5099761;27;45752;-75
2022/02/02 04:03:50;;;;;;;;;12.67;11.00;;;;;12.35;72.74;102078.47;5095682;27;45480;-76
2022/02/02 04:06:21;;;;;;;;;9.67;8.00;;;;;12.26;72.75;102065.91;5096893;27;45468;-75
2022/02/02 04:08:47;;;;;;;;;11.00;8.67;;;;;12.28;72.88;102065.94;5091250;27;45456;-75
2022/02/02 04:11:18;;;;;;;;;10.67;9.00;;;;;12.36;72.96;102089.94;5092475;27;46383;-76
2022/02/02 04:51:58;;;;;;;;;11.33;10.00;;;;;12.04;73.48;102092.75;5098189;27;45309;-76
2022/02/02 04:54:37;;;;;;;;;13.00;10.33;;;;;12.02;73.30;102086.50;5098403;27;46918;-75
2022/02/02 05:07:03;;;;;;;;;9.00;9.00;;;;;11.87;73.56;102070.22;5093869;27;45515;-75
2022/02/02 05:49:29;;;;;;;;;12.33;10.33;;;;;12.23;73.42;102117.91;5097733;27;45346;-79
2022/02/02 05:51:50;;;;;;;;;16.00;11.00;;;;;12.26;73.01;102118.88;5095016;27;45635;-76
2022/02/02 05:54:19;;;;;;;;;18.33;12.00;;;;;12.25;72.97;102116.19;5095974;27;45266;-76
2022/02/02 05:56:49;;;;;;;;;16.00;12.67;;;;;12.27;72.94;102119.78;5088707;27;66214;-77
2022/02/02 05:59:22;;;;;;;;;13.33;12.33;;;;;12.29;72.83;102126.00;5094064;27;45524;-75
2022/02/02 06:01:54;;;;;;;;;18.00;16.33;;;;;12.19;72.64;102105.44;5095342;27;45372;-77
2022/02/02 06:04:24;;;;;;;;;23.33;16.00;;;;;12.26;72.70;102123.28;5092609;27;45564;-76
2022/02/02 06:06:50;;;;;;;;;18.00;12.00;;;;;12.18;72.82;102101.00;5094467;27;47502;-77
2022/02/02 06:09:15;;;;;;;;;15.67;12.00;;;;;12.25;72.79;102125.03;5069323;27;45594;-76
2022/02/02 06:11:41;;;;;;;;;16.33;15.00;;;;;12.27;72.75;102130.38;5094102;27;45395;-76
2022/02/02 06:14:07;;;;;;;;;15.00;12.33;;;;;12.27;72.65;102133.03;5090369;27;45543;-75
2022/02/02 06:16:32;;;;;;;;;15.67;12.67;;;;;12.21;72.68;102122.28;5097189;27;46703;-75
2022/02/02 06:19:01;;;;;;;;;16.00;11.00;;;;;12.32;72.41;102137.56;5097432;27;45394;-75
2022/02/02 06:21:27;;;;;;;;;15.67;12.00;;;;;12.31;72.58;102133.13;5098389;27;45507;-75
2022/02/02 06:24:17;;;;;;;;;12.00;11.00;;;;;12.35;72.62;102133.19;5095224;27;45756;-75
2022/02/02 06:26:51;;;;;;;;;13.00;11.00;;;;;12.25;72.60;102125.03;5090327;27;46193;-76
2022/02/02 06:29:17;;;;;;;;;12.67;11.00;;;;;12.35;72.66;102141.13;5079265;27;56527;-75
2022/02/02 06:31:42;;;;;;;;;19.00;13.33;;;;;12.35;72.53;102142.03;5096577;27;53011;-75
2022/02/02 06:34:09;;;;;;;;;12.00;11.00;;;;;12.36;72.47;102135.91;5095254;27;45509;-75
2022/02/02 06:36:36;;;;;;;;;15.00;11.33;;;;;12.32;72.31;102134.03;5091318;27;46918;-75
2022/02/02 06:39:05;;;;;;;;;11.00;9.33;;;;;12.33;72.42;102147.31;5077424;27;45528;-75
2022/02/02 06:41:31;;;;;;;;;8.00;8.00;;;;;12.37;72.28;102144.75;5095581;27;45438;-75
2022/02/02 06:43:56;;;;;;;;;13.00;9.00;;;;;12.37;72.47;102134.16;5095037;27;45359;-76
2022/02/02 06:46:26;;;;;;;;;11.33;8.33;;;;;12.35;72.25;102131.44;5088860;27;46550;-75
2022/02/02 06:48:51;;;;;;;;;10.33;8.67;;;;;12.28;72.38;102127.75;5089545;27;45492;-74
2022/02/02 06:51:23;;;;;;;;;9.00;7.33;;;;;12.42;72.43;102144.00;5093206;27;45573;-73
2022/02/02 06:54:01;;;;;;;;;5.67;5.67;;;;;12.40;72.27;102142.16;5086783;27;45546;-74
2022/02/02 06:59:18;;;;;;;;;6.00;5.67;;;;;12.42;72.25;102151.06;5090287;27;45580;-74
2022/02/02 07:05:11;;;;;;;;;7.67;5.00;;;;;12.33;72.38;102160.53;5092258;27;45418;-76
2022/02/02 07:10:22;;;;;;;;;6.00;5.00;;;;;12.18;73.49;102177.78;5094008;27;45484;-78
2022/02/02 07:21:15;;;;;;;;;7.67;4.33;;;;;11.96;74.39;102177.22;5095659;27;45963;-77
2022/02/02 07:34:32;;;;;;;;;8.00;4.00;;;;;11.79;75.44;102189.97;5073449;27;45912;-77
2022/02/02 07:37:00;;;;;;;;;5.67;3.00;;;;;11.78;75.37;102182.00;5092324;27;45598;-74
2022/02/02 07:39:25;;;;;;;;;8.67;4.33;;;;;11.71;74.96;102172.06;5095457;27;45900;-74
2022/02/02 07:41:53;;;;;;;;;4.33;3.00;;;;;11.78;75.44;102192.59;5094300;27;45622;-75
2022/02/02 07:44:22;;;;;;;;;5.33;3.00;;;;;11.78;75.03;102192.59;5087461;27;45299;-73
2022/02/02 07:46:52;;;;;;;;;4.33;2.33;;;;;11.76;75.63;102199.56;5067887;27;45446;-73
2022/02/02 07:49:18;;;;;;;;;8.33;3.67;;;;;11.72;75.89;102209.19;5086369;27;46395;-73
2022/02/02 07:51:46;;;;;;;;;2.67;2.67;;;;;11.76;75.50;102202.22;5092369;27;45495;-73
2022/02/02 07:54:19;;;;;;;;;3.33;3.00;;;;;11.75;75.64;102211.00;5091064;27;45563;-75
2022/02/02 07:56:46;;;;;;;;;3.00;3.00;;;;;11.73;75.50;102203.03;5088615;27;45587;-75
2022/02/02 07:59:24;;;;;;;;;3.67;3.00;;;;;11.74;75.62;102215.41;5073830;27;47075;-75
2022/02/02 08:01:51;;;;;;;;;7.00;3.00;;;;;11.71;75.99;102215.31;5091908;27;45802;-75
2022/02/02 08:04:18;;;;;;;;;4.67;3.00;;;;;11.74;75.59;102209.22;5091215;27;45442;-74
2022/02/02 08:06:50;;;;;;;;;5.00;2.00;;;;;11.76;75.97;102218.97;5086892;27;46287;-75
2022/02/02 08:09:24;;;;;;;;;2.67;1.33;;;;;11.78;75.68;102222.59;5092103;27;46329;-74
2022/02/02 08:11:52;;;;;;;;;3.00;3.00;;;;;11.79;76.00;102226.13;5090973;27;45558;-74
2022/02/02 08:14:17;;;;;;;;;5.67;2.67;;;;;11.74;75.27;102204.81;5075983;27;45457;-72
2022/02/02 08:16:43;;;;;;;;;2.00;2.00;;;;;11.84;75.35;102227.19;5094539;27;45696;-74
2022/02/02 08:19:08;;;;;;;;;5.00;4.00;;;;;11.93;75.31;102230.09;5091818;27;45940;-74
2022/02/02 08:21:34;;;;;;;;;2.33;2.00;;;;;12.00;74.82;102229.41;5093157;27;52354;-74
2022/02/02 08:23:59;;;;;;;;;3.67;2.00;;;;;12.04;74.56;102218.06;5092980;27;51690;-73
2022/02/02 08:26:25;;;;;;;;;5.67;5.00;;;;;12.11;74.57;102223.50;5091695;27;45486;-72
2022/02/02 08:28:52;;;;;;;;;7.67;3.00;;;;;12.14;74.31;102227.13;5074874;27;46600;-72
2022/02/02 08:31:18;;;;;;;;;4.00;2.67;;;;;12.09;74.07;102223.47;5074936;27;45585;-74
2022/02/02 08:33:47;;;;;;;;;2.67;2.67;;;;;12.23;74.28;102239.72;5095322;27;45866;-74
2022/02/02 08:36:16;;;;;;;;;3.00;2.00;;;;;12.19;74.13;102220.19;5095534;27;45403;-74
2022/02/02 08:39:13;;;;;;;;;0.67;0.67;;;;;12.32;73.89;102238.22;5093372;27;46179;-74
2022/02/02 08:41:45;;;;;;;;;4.00;2.67;;;;;12.31;73.83;102227.59;5091123;27;45686;-72
2022/02/02 08:44:17;;;;;;;;;5.00;3.00;;;;;12.35;73.55;102228.53;5092116;27;45466;-74
2022/02/02 08:46:51;;;;;;;;;3.33;3.00;;;;;12.37;73.40;102237.44;5090993;27;45445;-74
2022/02/02 08:49:17;;;;;;;;;9.00;4.00;;;;;12.46;73.56;102225.31;5079437;27;46182;-72
2022/02/02 08:51:45;;;;;;;;;4.33;3.33;;;;;12.49;73.35;102233.34;5089751;27;45485;-74
2022/02/02 08:54:29;;;;;;;;;8.67;4.00;;;;;12.52;73.08;102222.84;5093619;27;45490;-74
2022/02/02 08:59:38;;;;;;;;;4.00;4.00;;;;;12.56;72.96;102216.75;5091588;27;45584;-74
2022/02/02 09:02:07;;;;;;;;;4.67;4.67;;;;;12.59;72.95;102226.53;5087511;27;45495;-74
2022/02/02 09:07:17;;;;;;;;;4.00;4.00;;;;;12.67;72.24;102224.06;5092080;27;45569;-74
2022/02/02 09:09:54;;;;;;;;;7.33;4.00;;;;;12.67;71.92;102230.25;5087553;27;46371;-73
2022/02/02 09:36:26;;;;;;;;;3.33;3.33;;;;;12.62;71.37;102207.16;5078725;27;45343;-74
2022/02/02 09:38:53;;;;;;;;;6.67;4.00;;;;;12.69;71.23;102217.06;5098165;27;45587;-74
2022/02/02 09:44:00;;;;;;;;;5.33;3.00;;;;;12.70;70.62;102216.19;5094350;27;45451;-74
2022/02/02 09:46:32;;;;;;;;;3.00;3.00;;;;;12.77;71.01;102232.28;5070788;27;45499;-74
2022/02/02 09:49:02;;;;;;;;;7.33;4.00;;;;;12.78;70.87;102222.56;5203049;22;46537;-73
2022/02/02 09:51:37;;;;;;;;;5.00;4.00;;;;;12.78;70.73;102234.09;5074080;27;45785;-73
2022/02/02 09:54:10;;;;;;;;;6.00;4.00;;;;;12.78;70.87;102230.50;5076718;27;45458;-74
2022/02/02 10:04:15;;;;;;;;;4.67;4.67;;;;;12.85;70.54;102224.53;5093169;27;45359;-72
2022/02/02 10:09:46;;;;;;;;;5.00;4.00;;;;;12.98;70.42;102238.97;5083978;27;45271;-73
2022/02/02 10:14:27;;;;;;;;;6.00;4.00;;;;;13.09;70.51;102241.00;5081911;27;45900;-73
2022/02/02 10:16:53;;;;;;;;;4.67;4.33;;;;;13.07;70.43;102232.13;5086061;27;45536;-73
2022/02/02 10:19:23;;;;;;;;;5.33;4.33;;;;;13.19;70.21;102242.09;5056546;27;45557;-73
2022/02/02 10:21:49;;;;;;;;;5.00;5.00;;;;;13.25;69.90;102241.38;5065816;28;46170;-73
2022/02/02 10:24:14;;;;;;;;;5.33;5.33;;;;;13.29;69.95;102241.50;5074749;27;45366;-73
2022/02/02 10:26:50;;;;;;;;;5.00;5.00;;;;;13.29;69.91;102222.91;5079724;27;45498;-74
2022/02/02 10:29:16;;;;;;;;;5.67;4.67;;;;;13.42;69.61;102250.59;5065682;27;45713;-73
2022/02/02 10:31:46;;;;;;;;;4.33;4.00;;;;;13.40;69.47;102255.00;5091363;27;45448;-73
2022/02/02 10:34:13;;;;;;;;;5.67;5.00;;;;;13.41;69.38;102247.94;5061373;27;45324;-72
2022/02/02 10:36:39;;;;;;;;;3.00;3.00;;;;;13.32;69.04;102238.03;5080679;27;45417;-73
2022/02/02 10:42:00;;;;;;;;;5.67;4.33;;;;;13.46;69.13;102256.88;5052229;27;46533;-74
2022/02/02 10:44:37;;;;;;;;;6.00;4.00;;;;;13.50;68.68;102254.34;5060907;27;45487;-74
2022/02/02 10:47:30;;;;;;;;;3.00;3.00;;;;;13.55;68.70;102260.63;5085152;27;45488;-73
2022/02/02 11:06:37;;;;;;;;;5.67;5.67;;;;;13.58;67.86;102239.50;5076384;27;45421;-74
2022/02/02 11:09:21;;;;;;;;;7.33;6.00;;;;;13.71;67.45;102255.66;5074580;27;45535;-75
2022/02/02 11:11:51;;;;;;;;;6.00;6.00;;;;;13.68;67.14;102256.47;5074748;27;45390;-78
2022/02/02 11:14:34;;;;;;;;;3.67;3.00;;;;;13.67;67.14;102269.72;5059539;27;46601;-79
2022/02/02 11:17:29;;;;;;;;;6.33;3.00;;;;;13.64;67.25;102257.31;5056077;27;46272;-76
2022/02/02 11:20:05;;;;;;;;;4.00;4.00;;;;;13.53;67.51;102245.53;5055167;27;45602;-76
2022/02/02 11:22:32;;;;;;;;;4.00;4.00;;;;;13.45;67.91;102239.19;5051775;27;45523;-76
2022/02/02 11:25:03;;;;;;;;;4.00;3.00;;;;;13.51;68.06;102258.78;5080802;27;45918;-76
2022/02/02 11:27:36;;;;;;;;;2.33;2.00;;;;;13.47;67.55;102253.38;5082327;27;45212;-76
2022/02/02 11:30:03;;;;;;;;;4.33;4.33;;;;;13.49;67.63;102252.56;5067096;27;45573;-74
2022/02/02 11:32:39;;;;;;;;;2.33;2.33;;;;;13.43;67.64;102238.25;5087282;27;45354;-75
2022/02/02 11:38:07;;;;;;;;;4.33;3.33;;;;;13.50;67.64;102256.09;5079655;27;45636;-78
2022/02/02 11:40:41;;;;;;;;;5.00;2.33;;;;;13.56;67.64;102270.38;5087315;27;45427;-77
2022/02/02 11:43:14;;;;;;;;;2.33;2.33;;;;;13.55;67.71;102228.78;5088943;27;45424;-74
2022/02/02 11:45:56;;;;;;;;;3.33;2.33;;;;;13.79;67.15;102246.97;5072218;27;45808;-74
2022/02/02 11:48:40;;;;;;;;;4.00;4.00;;;;;13.79;66.69;102257.59;5087500;27;45631;-73
2022/02/02 11:51:06;;;;;;;;;5.00;5.00;;;;;13.76;66.96;102235.41;5076724;27;45377;-74
2022/02/02 11:53:50;;;;;;;;;6.00;4.33;;;;;13.91;66.65;102242.81;5073431;27;45330;-74
2022/02/02 11:56:16;;;;;;;;;4.00;2.00;;;;;13.92;66.11;102253.44;5079182;27;46500;-74
2022/02/02 11:58:43;;;;;;;;;1.00;1.00;;;;;13.85;65.74;102251.53;5074826;27;45611;-75
2022/02/02 12:56:58;;;;;;;;;5.33;4.33;;;;;13.38;66.94;102232.84;5086598;27;45335;-74
2022/02/02 13:02:09;;;;;;;;;3.67;2.00;;;;;13.37;67.06;102225.75;5093288;27;45707;-74
2022/02/02 13:04:35;;;;;;;;;3.67;3.67;;;;;13.48;67.12;102221.56;5063324;27;46499;-73
2022/02/02 13:07:11;;;;;;;;;3.33;3.33;;;;;13.45;67.06;102213.53;5095126;27;45605;-74
2022/02/02 13:09:37;;;;;;;;;3.00;3.00;;;;;13.47;66.26;102214.47;5093373;27;46678;-73
2022/02/02 13:12:22;;;;;;;;;4.00;2.67;;;;;13.54;66.48;102228.78;5097152;27;45398;-74
2022/02/02 13:21:11;;;;;;;;;1.00;1.00;;;;;13.53;66.20;102249.09;5081350;27;45521;-73
2022/02/02 13:26:22;;;;;;;;;3.00;3.00;;;;;13.74;66.27;102235.41;5094445;27;45418;-74
2022/02/02 13:29:03;;;;;;;;;3.00;3.00;;;;;13.83;65.76;102239.97;5093985;27;45232;-74
2022/02/02 13:31:36;;;;;;;;;3.00;3.00;;;;;13.95;65.55;102239.31;5078681;27;45886;-74
2022/02/02 13:34:20;;;;;;;;;3.00;3.00;;;;;14.09;65.77;102229.88;5096631;27;45516;-74
2022/02/02 13:37:17;;;;;;;;;2.00;2.00;;;;;14.08;64.91;102236.94;5096182;27;45695;-74
2022/02/02 13:53:07;;;;;;;;;5.00;1.00;;;;;13.58;65.17;102233.25;5080871;27;45457;-74
2022/02/02 13:55:48;;;;;;;;;2.33;1.00;;;;;13.53;65.31;102230.53;5074008;28;45477;-74
2022/02/02 14:01:12;;;;;;;;;2.00;1.00;;;;;13.46;63.78;102225.94;5045500;27;45467;-74
2022/02/02 14:32:56;;;;;;;;;1.00;0.00;;;;;13.68;61.06;102221.06;5088695;27;45361;-73
2022/02/02 14:35:22;;;;;;;;;1.00;1.00;;;;;13.63;62.40;102219.25;5088167;27;62578;-74
2022/02/02 14:37:49;;;;;;;;;1.00;1.00;;;;;13.56;62.37;102235.00;5092396;27;54927;-74
2022/02/02 14:40:24;;;;;;;;;0.67;0.67;;;;;13.48;62.43;102236.59;5086861;27;45626;-74
2022/02/02 14:42:53;;;;;;;;;1.00;1.00;;;;;13.45;63.08;102237.41;5069345;27;45575;-74
2022/02/02 14:45:22;;;;;;;;;1.33;1.00;;;;;13.47;62.91;102241.00;5093236;27;47383;-74
2022/02/02 14:47:51;;;;;;;;;1.00;1.00;;;;;13.51;63.24;102231.34;5083944;27;45328;-73
2022/02/02 14:50:28;;;;;;;;;1.00;1.00;;;;;13.55;62.55;102236.75;5091247;27;45291;-73
2022/02/02 14:53:13;;;;;;;;;0.00;0.00;;;;;13.48;63.21;102218.94;5069604;27;45403;-74
2022/02/02 15:27:37;;;;;;;;;2.00;1.00;;;;;13.45;63.33;102229.47;5088753;27;45543;-74
2022/02/02 15:30:23;;;;;;;;;1.00;1.00;;;;;13.32;63.12;102222.13;5082810;27;45432;-74
2022/02/02 15:32:50;;;;;;;;;1.00;1.00;;;;;13.35;62.49;102246.94;5081146;27;45560;-73
2022/02/02 15:35:16;;;;;;;;;0.00;0.00;;;;;13.31;62.98;102246.81;5087269;27;45535;-74
2022/02/02 15:40:15;;;;;;;;;1.00;0.00;;;;;13.14;62.45;102222.53;5077860;27;45591;-74
2022/02/02 15:42:51;;;;;;;;;0.00;0.00;;;;;13.20;62.82;102232.38;5063846;28;45315;-74
2022/02/02 15:58:30;;;;;;;;;0.00;0.00;;;;;13.15;62.83;102213.72;5077059;27;45677;-74
2022/02/02 16:03:43;;;;;;;;;0.00;0.00;;;;;13.17;62.84;102216.44;5073757;27;45410;-73
2022/02/02 16:06:14;;;;;;;;;1.00;1.00;;;;;13.14;62.72;102211.03;5079571;27;45979;-73
2022/02/02 16:08:42;;;;;;;;;2.33;1.00;;;;;13.05;62.94;102199.38;5074777;27;46071;-74
2022/02/02 16:13:41;;;;;;;;;1.67;1.67;;;;;13.11;62.75;102215.44;5075746;27;45371;-74
2022/02/02 16:18:57;;;;;;;;;1.33;1.33;;;;;13.03;63.02;102198.44;5078692;27;46279;-74
2022/02/02 16:37:39;;;;;;;;;2.00;2.00;;;;;13.00;62.84;102194.84;5055502;27;45616;-74
2022/02/02 16:40:07;;;;;;;;;2.00;2.00;;;;;12.99;63.10;102193.03;5091368;27;46029;-74
2022/02/02 16:45:17;;;;;;;;;2.67;1.33;;;;;12.97;63.07;102206.25;5086362;27;45450;-74
2022/02/02 16:47:45;;;;;;;;;2.67;2.67;;;;;12.95;63.15;102194.72;5091147;27;45695;-73
2022/02/02 16:50:21;;;;;;;;;2.00;2.00;;;;;12.95;63.13;102194.72;5079010;27;47459;-74
2022/02/02 16:52:49;;;;;;;;;2.00;2.00;;;;;12.84;62.72;102180.34;5064454;27;45547;-74
2022/02/02 16:55:31;;;;;;;;;4.00;4.00;;;;;12.94;62.74;102203.50;5050830;28;45430;-74
2022/02/02 17:36:03;;;;;;;;;18.67;16.67;;;;;12.75;62.05;102186.31;5068092;27;45406;-73
2022/02/02 17:41:03;;;;;;;;;17.67;14.67;;;;;12.73;62.62;102190.69;5068854;27;46413;-73
2022/02/02 17:44:50;;;;;;;;;6.00;3.33;;;;;12.72;62.33;102206.53;5080720;27;46564;-74
2022/02/02 18:18:59;;;;;;;;;2.67;2.00;;;;;12.67;61.76;102198.44;5072327;27;45592;-76
2022/02/02 18:21:26;;;;;;;;;4.00;3.00;;;;;12.69;61.18;102207.34;5066283;27;45312;-76
2022/02/02 18:24:08;;;;;;;;;2.33;2.33;;;;;12.61;61.36;102195.66;5081319;27;45380;-78
2022/02/02 18:29:34;;;;;;;;;3.00;3.00;;;;;12.66;60.71;102196.66;5083087;27;45498;-74
2022/02/02 18:41:25;;;;;;;;;39.50;33.75;;;;;12.71;61.00;102202.09;5073559;27;45468;-78
2022/02/02 18:43:28;;;;;;;;;13.00;11.00;;;;;12.73;60.90;102200.34;5047407;27;45784;-75
2022/02/02 18:46:19;;;;;;;;;4.67;2.00;;;;;12.66;60.94;102190.47;5084360;27;45433;-76
2022/02/02 18:48:42;;;;;;;;;5.00;3.67;;;;;12.73;60.77;102197.69;5078952;27;45650;-75
2022/02/02 18:51:25;;;;;;;;;18.50;15.00;;;;;12.71;60.58;102199.44;5077684;27;45393;-76
2022/02/02 18:56:33;;;;;;;;;7.67;6.33;;;;;12.73;60.65;102206.59;5083161;27;45533;-75
2022/02/02 19:00:05;;;;;;;;;11.33;9.00;;;;;12.76;60.41;102205.75;5078926;27;46148;-76
2022/02/02 19:02:08;;;;;;;;;10.33;9.33;;;;;12.75;60.90;102196.00;5076356;27;45289;-76
2022/02/02 19:55:46;;;;;;;;;12.00;12.00;;;;;12.77;61.11;102183.69;5050654;27;45461;-75
2022/02/02 20:11:27;;;;;;;;;10.00;6.00;;;;;12.67;61.04;102189.63;5082180;27;45552;-75
2022/02/02 20:13:53;;;;;;;;;10.00;8.67;;;;;12.53;61.02;102165.44;5084623;27;46290;-73
2022/02/02 20:16:18;;;;;;;;;9.33;9.33;;;;;12.63;60.72;102196.63;5040308;27;61029;-74
2022/02/02 20:18:46;;;;;;;;;9.33;8.67;;;;;12.63;60.84;102193.06;5078529;27;57941;-74
2022/02/02 20:21:13;;;;;;;;;10.00;9.00;;;;;12.59;60.67;102198.28;5091845;27;45453;-74
2022/02/02 20:23:45;;;;;;;;;10.33;8.67;;;;;12.58;60.56;102211.50;5087920;27;46419;-74
2022/02/02 20:26:14;;;;;;;;;8.33;7.67;;;;;12.50;60.70;102198.03;5073196;27;45568;-75
2022/02/02 20:28:40;;;;;;;;;5.33;5.33;;;;;12.56;60.73;102216.75;5064949;27;45532;-76
2022/02/02 20:31:05;;;;;;;;;9.33;6.67;;;;;12.47;60.70;102199.75;5082784;27;45632;-74
2022/02/02 20:33:30;;;;;;;;;12.67;9.00;;;;;12.46;60.69;102197.94;5085726;27;59936;-76
2022/02/02 20:35:56;;;;;;;;;11.00;9.00;;;;;12.53;60.79;102213.13;5065023;27;60610;-75
2022/02/02 20:38:21;;;;;;;;;5.67;5.33;;;;;12.42;60.52;102185.47;5086356;27;45504;-76
2022/02/02 20:40:47;;;;;;;;;9.67;5.67;;;;;12.47;60.82;102205.03;5069476;27;45549;-75
2022/02/02 20:43:24;;;;;;;;;9.00;7.67;;;;;12.42;60.90;102196.97;5081945;27;46496;-74
2022/02/02 21:10:17;;;;;;;;;4.67;4.67;;;;;12.41;60.27;102188.97;5034656;28;45574;-78
2022/02/02 21:15:29;;;;;;;;;5.00;4.00;;;;;12.44;60.20;102197.91;5068255;27;45573;-77
2022/02/02 21:17:58;;;;;;;;;4.33;4.33;;;;;12.42;60.08;102196.97;5070925;27;45807;-77
2022/02/02 21:20:31;;;;;;;;;8.67;5.00;;;;;12.43;60.28;102196.13;5055993;27;46178;-76
2022/02/02 21:23:02;;;;;;;;;8.33;4.33;;;;;12.36;60.16;102180.94;5078162;27;45466;-78
2022/02/02 21:25:46;;;;;;;;;9.67;8.00;;;;;12.47;59.91;102191.78;5091890;27;45498;-76
2022/02/02 21:28:11;;;;;;;;;4.33;3.00;;;;;12.48;59.95;102191.81;5079021;27;45473;-77
2022/02/02 21:30:41;;;;;;;;;6.67;6.00;;;;;12.41;59.95;102170.44;5071658;27;45477;-76
2022/02/02 21:33:08;;;;;;;;;8.33;5.00;;;;;12.51;59.85;102186.59;5076321;27;45540;-76
2022/02/02 21:35:35;;;;;;;;;8.00;3.67;;;;;12.51;59.51;102186.59;5092010;27;47628;-77
2022/02/02 21:38:05;;;;;;;;;4.67;4.00;;;;;12.37;59.65;102164.19;5058858;27;46109;-76
2022/02/02 21:40:32;;;;;;;;;5.00;5.00;;;;;12.51;59.75;102178.63;5079411;27;45412;-76
2022/02/02 21:42:57;;;;;;;;;4.00;4.00;;;;;12.45;59.66;102169.66;5094225;27;45818;-76
2022/02/02 21:45:24;;;;;;;;;4.67;4.00;;;;;12.55;59.58;102190.22;5069967;27;45677;-76
2022/02/02 21:47:50;;;;;;;;;2.67;2.00;;;;;12.34;59.13;102161.44;5207849;22;45453;-76
2022/02/02 21:50:18;;;;;;;;;4.00;3.67;;;;;12.54;59.09;102185.78;5092198;27;45848;-76
2022/02/02 21:52:44;;;;;;;;;6.00;4.33;;;;;12.50;59.32;102178.59;5086228;27;45444;-76
2022/02/02 21:55:09;;;;;;;;;5.00;3.67;;;;;12.54;59.52;102183.13;5096672;27;46671;-77
2022/02/02 21:57:35;;;;;;;;;2.67;2.00;;;;;12.45;59.45;102175.84;5091567;27;45577;-77
2022/02/02 22:00:01;;;;;;;;;5.33;3.67;;;;;12.47;59.41;102178.56;5077847;27;45622;-76
2022/02/02 22:02:28;;;;;;;;;1.00;1.00;;;;;12.40;59.04;102158.03;5075599;27;45701;-76
2022/02/02 22:04:53;;;;;;;;;2.67;2.67;;;;;12.39;59.04;102165.09;5097664;27;47744;-77
2022/02/02 22:07:19;;;;;;;;;3.00;3.00;;;;;12.42;59.09;102166.94;5097814;27;45405;-75
2022/02/02 22:09:47;;;;;;;;;3.00;1.00;;;;;12.41;58.92;102168.69;5090589;27;45393;-76
2022/02/02 22:12:12;;;;;;;;;3.33;2.00;;;;;12.39;58.67;102158.91;5091243;27;45638;-77
2022/02/02 22:14:39;;;;;;;;;2.67;2.67;;;;;12.38;58.58;102163.31;5098493;27;58557;-76
2022/02/02 22:17:05;;;;;;;;;3.67;2.67;;;;;12.41;58.66;102162.47;5111031;27;45430;-76
2022/02/02 22:19:30;;;;;;;;;3.00;3.00;;;;;12.40;58.72;102164.22;5092095;27;45380;-76
2022/02/02 22:21:56;;;;;;;;;4.00;2.00;;;;;12.38;58.78;102160.66;5097881;27;45340;-77
2022/02/02 22:24:22;;;;;;;;;3.67;2.00;;;;;12.37;58.79;102158.88;5094545;27;46622;-76
2022/02/02 22:26:47;;;;;;;;;3.00;3.00;;;;;12.38;58.79;102159.78;5096433;27;45523;-76
2022/02/02 22:29:13;;;;;;;;;4.33;1.33;;;;;12.40;58.73;102171.28;5097516;27;45393;-76
2022/02/02 22:31:38;;;;;;;;;3.00;1.00;;;;;12.37;58.60;102168.59;5097826;27;45510;-76
2022/02/02 22:34:03;;;;;;;;;3.00;3.00;;;;;12.38;58.59;102168.59;5076502;27;46785;-76
2022/02/02 22:36:29;;;;;;;;;2.00;2.00;;;;;12.36;58.50;102165.03;5097495;27;45330;-76
2022/02/02 22:38:54;;;;;;;;;4.33;2.00;;;;;12.37;58.61;102161.53;5089745;27;45348;-75
2022/02/02 22:41:20;;;;;;;;;1.00;1.00;;;;;12.30;58.59;102149.91;5077499;27;45336;-75
2022/02/02 22:43:48;;;;;;;;;2.00;2.00;;;;;12.36;58.54;102159.75;5091858;27;45873;-76